createdAt,value
2018-03-29T00:01:04.603Z,997.45
2018-03-29T00:02:13.703Z,997.52
2018-03-29T00:03:22.582Z,997.51
2018-03-29T00:04:31.687Z,997.52
2018-03-29T00:05:40.511Z,997.55
2018-03-29T00:06:49.388Z,997.54
2018-03-29T00:07:58.217Z,997.56
2018-03-29T00:09:07.039Z,997.6
2018-03-29T00:10:15.866Z,997.61
2018-03-29T00:11:24.974Z,997.62
2018-03-29T00:12:33.849Z,997.63
2018-03-29T00:13:42.676Z,997.61
2018-03-29T00:14:51.784Z,997.66
2018-03-29T00:16:00.610Z,997.67
2018-03-29T00:17:09.437Z,997.62
2018-03-29T00:18:18.419Z,997.71
2018-03-29T00:19:27.519Z,997.7
2018-03-29T00:20:36.345Z,997.74
2018-03-29T00:21:45.180Z,997.77
2018-03-29T00:22:53.998Z,997.75
2018-03-29T00:24:02.977Z,997.86
2018-03-29T00:25:11.803Z,997.84
2018-03-29T00:26:20.633Z,997.79
2018-03-29T00:27:29.734Z,997.92
2018-03-29T00:28:38.560Z,997.94
2018-03-29T00:29:47.487Z,997.86
2018-03-29T00:30:56.318Z,997.89
2018-03-29T00:32:05.150Z,997.92
2018-03-29T00:33:13.974Z,997.94
2018-03-29T00:34:23.077Z,997.96
2018-03-29T00:35:31.950Z,997.98
2018-03-29T00:36:40.775Z,998.03
2018-03-29T00:37:49.600Z,998.03
2018-03-29T00:38:58.426Z,998.05
2018-03-29T00:40:07.249Z,998.19
2018-03-29T00:41:16.124Z,998.12
2018-03-29T00:42:25.226Z,998.16
2018-03-29T00:43:34.052Z,998.19
2018-03-29T00:44:42.882Z,998.17
2018-03-29T00:45:51.982Z,998.2
2018-03-29T00:47:01.107Z,998.17
2018-03-29T00:48:09.931Z,998.21
2018-03-29T00:49:18.758Z,998.23
2018-03-29T00:50:27.585Z,998.24
2018-03-29T00:51:36.410Z,998.29
2018-03-29T00:52:45.236Z,998.29
2018-03-29T00:53:54.060Z,998.32
2018-03-29T00:55:02.888Z,998.28
2018-03-29T00:56:11.713Z,998.34
2018-03-29T00:57:20.539Z,998.35
2018-03-29T00:58:29.923Z,998.41
2018-03-29T00:59:38.748Z,998.38
2018-03-29T01:00:47.571Z,998.39
2018-03-29T01:01:56.400Z,998.4
2018-03-29T01:03:05.502Z,998.4
2018-03-29T01:04:14.330Z,998.45
2018-03-29T01:05:23.154Z,998.43
2018-03-29T01:06:31.978Z,998.47
2018-03-29T01:07:40.805Z,998.47
2018-03-29T01:08:49.627Z,998.52
2018-03-29T01:09:58.453Z,998.52
2018-03-29T01:11:07.557Z,998.5
2018-03-29T01:12:16.659Z,998.58
2018-03-29T01:13:25.761Z,998.58
2018-03-29T01:14:34.587Z,998.64
2018-03-29T01:15:43.416Z,998.54
2018-03-29T01:16:52.242Z,998.58
2018-03-29T01:18:01.072Z,998.61
2018-03-29T01:19:09.897Z,998.61
2018-03-29T01:20:18.720Z,998.62
2018-03-29T01:21:27.845Z,998.66
2018-03-29T01:22:36.943Z,998.57
2018-03-29T01:23:45.770Z,998.67
2018-03-29T01:24:54.596Z,998.63
2018-03-29T01:26:03.422Z,998.68
2018-03-29T01:27:12.398Z,998.66
2018-03-29T01:28:21.221Z,998.71
2018-03-29T01:29:30.048Z,998.71
2018-03-29T01:30:38.872Z,998.75
2018-03-29T01:31:47.698Z,998.76
2018-03-29T01:32:56.774Z,998.8
2018-03-29T01:34:05.598Z,998.85
2018-03-29T01:35:14.423Z,998.85
2018-03-29T01:36:23.248Z,998.82
2018-03-29T01:37:32.071Z,998.86
2018-03-29T01:38:41.046Z,998.92
2018-03-29T01:39:50.149Z,998.93
2018-03-29T01:40:58.973Z,998.86
2018-03-29T01:42:07.798Z,998.91
2018-03-29T01:43:16.623Z,998.94
2018-03-29T01:44:25.450Z,998.97
2018-03-29T01:45:34.554Z,998.97
2018-03-29T01:46:43.382Z,998.97
2018-03-29T01:47:52.206Z,999
2018-03-29T01:49:01.035Z,998.97
2018-03-29T01:50:09.911Z,999.02
2018-03-29T01:51:18.736Z,999.02
2018-03-29T01:52:27.559Z,999.04
2018-03-29T01:53:36.660Z,999.03
2018-03-29T01:54:45.487Z,999.04
2018-03-29T01:55:54.413Z,999.05
2018-03-29T01:57:03.240Z,999.05
2018-03-29T01:58:12.067Z,999.1
2018-03-29T01:59:20.890Z,999.16
2018-03-29T02:00:29.716Z,999.15
2018-03-29T02:01:38.919Z,999.14
2018-03-29T02:02:48.019Z,999.21
2018-03-29T02:03:56.845Z,999.15
2018-03-29T02:05:05.671Z,999.16
2018-03-29T02:06:15.051Z,999.22
2018-03-29T02:07:23.878Z,999.18
2018-03-29T02:08:32.704Z,999.24
2018-03-29T02:09:41.527Z,999.24
2018-03-29T02:10:50.355Z,999.22
2018-03-29T02:11:59.183Z,999.23
2018-03-29T02:13:08.112Z,999.25
2018-03-29T02:14:16.938Z,999.27
2018-03-29T02:15:25.763Z,999.23
2018-03-29T02:16:34.589Z,999.26
2018-03-29T02:17:43.420Z,999.24
2018-03-29T02:18:52.290Z,999.3
2018-03-29T02:20:01.393Z,999.31
2018-03-29T02:21:10.217Z,999.34
2018-03-29T02:22:19.049Z,999.33
2018-03-29T02:23:28.422Z,999.34
2018-03-29T02:24:37.398Z,999.29
2018-03-29T02:25:46.223Z,999.33
2018-03-29T02:26:55.048Z,999.36
2018-03-29T02:28:03.872Z,999.35
2018-03-29T02:29:12.699Z,999.34
2018-03-29T02:30:21.675Z,999.39
2018-03-29T02:31:30.506Z,999.37
2018-03-29T02:32:39.607Z,999.36
2018-03-29T02:33:48.436Z,999.37
2018-03-29T02:34:57.823Z,999.37
2018-03-29T02:36:06.902Z,999.44
2018-03-29T02:37:15.727Z,999.4
2018-03-29T02:38:24.844Z,999.42
2018-03-29T02:39:33.665Z,999.45
2018-03-29T02:40:42.494Z,999.4
2018-03-29T02:41:51.320Z,999.46
2018-03-29T02:43:00.433Z,999.41
2018-03-29T02:44:09.254Z,999.43
2018-03-29T02:45:18.080Z,999.45
2018-03-29T02:46:26.910Z,999.44
2018-03-29T02:47:36.067Z,999.53
2018-03-29T02:48:44.894Z,999.52
2018-03-29T02:49:53.722Z,999.51
2018-03-29T02:51:02.828Z,999.59
2018-03-29T02:52:11.654Z,999.58
2018-03-29T02:53:20.581Z,999.49
2018-03-29T02:54:29.407Z,999.52
2018-03-29T02:55:38.238Z,999.51
2018-03-29T02:56:47.063Z,999.6
2018-03-29T02:57:55.890Z,999.51
2018-03-29T02:59:04.868Z,999.56
2018-03-29T03:00:13.968Z,999.6
2018-03-29T03:01:22.799Z,999.61
2018-03-29T03:02:31.903Z,999.54
2018-03-29T03:03:40.730Z,999.63
2018-03-29T03:04:49.884Z,999.65
2018-03-29T03:05:58.711Z,999.76
2018-03-29T03:07:07.540Z,999.72
2018-03-29T03:08:16.921Z,999.72
2018-03-29T03:09:25.748Z,999.76
2018-03-29T03:10:34.671Z,999.77
2018-03-29T03:11:43.500Z,999.8
2018-03-29T03:12:52.323Z,999.94
2018-03-29T03:14:01.429Z,999.84
2018-03-29T03:15:10.259Z,999.83
2018-03-29T03:16:19.283Z,999.84
2018-03-29T03:17:28.115Z,999.85
2018-03-29T03:18:36.941Z,999.87
2018-03-29T03:19:45.768Z,999.85
2018-03-29T03:20:54.597Z,999.87
2018-03-29T03:22:03.725Z,999.9
2018-03-29T03:23:12.553Z,999.86
2018-03-29T03:24:21.387Z,999.87
2018-03-29T03:25:30.215Z,999.98
2018-03-29T03:26:39.044Z,999.95
2018-03-29T03:27:47.871Z,1000.02
2018-03-29T03:28:56.697Z,1000.01
2018-03-29T03:30:05.816Z,1000.08
2018-03-29T03:31:14.921Z,1000.1
2018-03-29T03:32:23.746Z,1000.08
2018-03-29T03:33:32.624Z,1000.12
2018-03-29T03:34:41.450Z,1000.23
2018-03-29T03:35:50.278Z,1000.13
2018-03-29T03:36:59.110Z,1000.21
2018-03-29T03:38:07.934Z,1000.23
2018-03-29T03:39:17.087Z,1000.19
2018-03-29T03:40:25.913Z,1000.25
2018-03-29T03:41:34.739Z,1000.27
2018-03-29T03:42:43.567Z,1000.28
2018-03-29T03:43:52.670Z,1000.23
2018-03-29T03:45:01.924Z,1000.28
2018-03-29T03:46:10.750Z,1000.34
2018-03-29T03:47:19.577Z,1000.57
2018-03-29T03:48:28.408Z,1000.34
2018-03-29T03:49:37.510Z,1000.35
2018-03-29T03:50:47.042Z,1000.4
2018-03-29T03:51:55.870Z,1000.37
2018-03-29T03:53:04.699Z,1000.44
2018-03-29T03:54:13.524Z,1000.4
2018-03-29T03:55:22.627Z,1000.49
2018-03-29T03:56:32.158Z,1000.48
2018-03-29T03:57:40.985Z,1000.6
2018-03-29T03:58:49.814Z,1000.57
2018-03-29T03:59:58.639Z,1000.51
2018-03-29T04:01:07.743Z,1000.58
2018-03-29T04:02:16.597Z,1000.63
2018-03-29T04:03:25.394Z,1000.71
2018-03-29T04:04:34.223Z,1000.64
2018-03-29T04:05:43.048Z,1000.71
2018-03-29T04:06:51.876Z,1000.62
2018-03-29T04:08:00.953Z,1000.65
2018-03-29T04:09:09.785Z,1000.69
2018-03-29T04:10:18.884Z,1000.63
2018-03-29T04:11:27.709Z,1000.71
2018-03-29T04:12:36.538Z,1000.68
2018-03-29T04:13:45.366Z,1000.7
2018-03-29T04:14:54.192Z,1000.74
2018-03-29T04:16:03.020Z,1000.73
2018-03-29T04:17:11.852Z,1000.87
2018-03-29T04:18:21.230Z,1000.77
2018-03-29T04:19:30.060Z,1000.71
2018-03-29T04:20:38.886Z,1000.81
2018-03-29T04:21:47.721Z,1000.82
2018-03-29T04:22:56.822Z,1000.85
2018-03-29T04:24:05.648Z,1000.87
2018-03-29T04:25:14.474Z,1000.91
2018-03-29T04:26:23.304Z,1000.87
2018-03-29T04:27:32.140Z,1000.83
2018-03-29T04:28:41.241Z,1000.97
2018-03-29T04:29:50.068Z,1000.91
2018-03-29T04:30:58.895Z,1001.02
2018-03-29T04:32:07.722Z,1001.04
2018-03-29T04:33:16.825Z,1001.03
2018-03-29T04:34:25.653Z,1001.06
2018-03-29T04:35:34.483Z,1001
2018-03-29T04:36:43.611Z,1001.02
2018-03-29T04:37:52.438Z,1001.01
2018-03-29T04:39:01.264Z,1001.01
2018-03-29T04:40:10.097Z,1001.05
2018-03-29T04:41:18.918Z,1001.05
2018-03-29T04:42:28.024Z,1001.08
2018-03-29T04:43:36.850Z,1001.1
2018-03-29T04:44:45.953Z,1001.13
2018-03-29T04:45:54.782Z,1001.11
2018-03-29T04:47:03.886Z,1001.25
2018-03-29T04:48:13.014Z,1001.19
2018-03-29T04:49:21.842Z,1001.2
2018-03-29T04:50:30.672Z,1001.23
2018-03-29T04:51:39.499Z,1001.22
2018-03-29T04:52:48.325Z,1001.22
2018-03-29T04:53:57.205Z,1001.26
2018-03-29T04:55:06.033Z,1001.26
2018-03-29T04:56:14.862Z,1001.24
2018-03-29T04:57:23.689Z,1001.23
2018-03-29T04:58:32.517Z,1001.29
2018-03-29T04:59:41.345Z,1001.32
2018-03-29T05:00:50.172Z,1001.28
2018-03-29T05:01:59.004Z,1001.34
2018-03-29T05:03:07.831Z,1001.42
2018-03-29T05:04:16.658Z,1001.41
2018-03-29T05:05:25.590Z,1001.49
2018-03-29T05:06:34.414Z,1001.48
2018-03-29T05:07:43.242Z,1001.46
2018-03-29T05:08:52.069Z,1001.47
2018-03-29T05:10:00.896Z,1001.54
2018-03-29T05:11:09.923Z,1001.54
2018-03-29T05:12:18.749Z,1001.47
2018-03-29T05:13:27.858Z,1001.54
2018-03-29T05:14:36.689Z,1001.58
2018-03-29T05:15:45.790Z,1001.55
2018-03-29T05:16:54.768Z,1001.63
2018-03-29T05:18:03.596Z,1001.6
2018-03-29T05:19:12.425Z,1001.67
2018-03-29T05:20:21.303Z,1001.74
2018-03-29T05:21:30.133Z,1001.75
2018-03-29T05:22:39.111Z,1001.77
2018-03-29T05:23:47.939Z,1001.73
2018-03-29T05:24:57.322Z,1001.83
2018-03-29T05:26:06.444Z,1001.79
2018-03-29T05:27:15.259Z,1001.82
2018-03-29T05:28:24.390Z,1001.84
2018-03-29T05:29:33.493Z,1001.8
2018-03-29T05:30:42.319Z,1001.89
2018-03-29T05:31:51.427Z,1001.83
2018-03-29T05:33:00.254Z,1001.86
2018-03-29T05:34:09.509Z,1001.87
2018-03-29T05:35:18.333Z,1001.93
2018-03-29T05:36:27.443Z,1001.88
2018-03-29T05:37:36.546Z,1001.89
2018-03-29T05:38:45.654Z,1001.92
2018-03-29T05:39:54.533Z,1001.86
2018-03-29T05:41:03.370Z,1001.89
2018-03-29T05:42:12.189Z,1001.91
2018-03-29T05:43:21.013Z,1001.96
2018-03-29T05:44:29.844Z,1002
2018-03-29T05:45:38.969Z,1001.99
2018-03-29T05:46:47.798Z,1002.02
2018-03-29T05:47:56.627Z,1002.07
2018-03-29T05:49:05.453Z,1002
2018-03-29T05:50:14.279Z,1002.01
2018-03-29T05:51:23.208Z,1002.03
2018-03-29T05:52:32.035Z,1002.02
2018-03-29T05:53:40.865Z,1002.08
2018-03-29T05:54:49.693Z,1002.05
2018-03-29T05:55:58.521Z,1002.08
2018-03-29T05:57:07.551Z,1002.15
2018-03-29T05:58:16.382Z,1002.14
2018-03-29T05:59:25.212Z,1002.1
2018-03-29T06:00:34.037Z,1002.07
2018-03-29T06:01:42.863Z,1002.13
2018-03-29T06:02:51.791Z,1002.12
2018-03-29T06:04:00.621Z,1002.12
2018-03-29T06:05:09.449Z,1002.17
2018-03-29T06:06:18.275Z,1002.16
2018-03-29T06:07:27.101Z,1002.18
2018-03-29T06:08:35.927Z,1002.19
2018-03-29T06:09:44.755Z,1002.19
2018-03-29T06:10:53.588Z,1002.18
2018-03-29T06:12:02.418Z,1002.19
2018-03-29T06:13:11.245Z,1002.24
2018-03-29T06:14:20.121Z,1002.19
2018-03-29T06:15:29.245Z,1002.25
2018-03-29T06:16:38.077Z,1002.29
2018-03-29T06:17:46.918Z,1002.27
2018-03-29T06:18:56.023Z,1002.31
2018-03-29T06:20:04.951Z,1002.35
2018-03-29T06:21:13.779Z,1002.37
2018-03-29T06:22:22.607Z,1002.37
2018-03-29T06:23:31.435Z,1002.37
2018-03-29T06:24:40.263Z,1002.41
2018-03-29T06:25:49.140Z,1002.44
2018-03-29T06:26:57.969Z,1002.51
2018-03-29T06:28:06.799Z,1002.45
2018-03-29T06:29:15.628Z,1002.47
2018-03-29T06:30:24.462Z,1002.52
2018-03-29T06:31:33.333Z,1002.56
2018-03-29T06:32:42.164Z,1002.53
2018-03-29T06:33:50.992Z,1002.54
2018-03-29T06:34:59.820Z,1002.58
2018-03-29T06:36:08.925Z,1002.58
2018-03-29T06:37:17.954Z,1002.64
2018-03-29T06:38:26.783Z,1002.62
2018-03-29T06:39:35.613Z,1002.63
2018-03-29T06:40:44.450Z,1002.63
2018-03-29T06:41:53.557Z,1002.66
2018-03-29T06:43:02.538Z,1002.66
2018-03-29T06:44:11.368Z,1002.66
2018-03-29T06:45:20.201Z,1002.72
2018-03-29T06:46:29.032Z,1002.61
2018-03-29T06:47:37.860Z,1002.67
2018-03-29T06:48:46.689Z,1002.68
2018-03-29T06:49:55.518Z,1002.72
2018-03-29T06:51:04.347Z,1002.79
2018-03-29T06:52:13.173Z,1002.77
2018-03-29T06:53:22.283Z,1002.8
2018-03-29T06:54:31.510Z,1002.83
2018-03-29T06:55:40.338Z,1002.85
2018-03-29T06:56:49.167Z,1002.92
2018-03-29T06:57:57.997Z,1002.87
2018-03-29T06:59:06.825Z,1002.95
2018-03-29T07:00:15.805Z,1002.89
2018-03-29T07:01:24.634Z,1002.87
2018-03-29T07:02:33.464Z,1002.86
2018-03-29T07:03:42.291Z,1002.93
2018-03-29T07:04:51.125Z,1002.91
2018-03-29T07:06:00.489Z,1002.95
2018-03-29T07:07:09.592Z,1002.94
2018-03-29T07:08:18.695Z,1002.97
2018-03-29T07:09:27.526Z,1002.9
2018-03-29T07:10:36.356Z,1002.92
2018-03-29T07:11:45.295Z,1002.88
2018-03-29T07:12:54.133Z,1003
2018-03-29T07:14:02.952Z,1002.94
2018-03-29T07:15:11.782Z,1002.9
2018-03-29T07:16:20.613Z,1002.98
2018-03-29T07:17:29.690Z,1002.95
2018-03-29T07:18:38.520Z,1002.99
2018-03-29T07:19:47.351Z,1003
2018-03-29T07:20:56.187Z,1003.01
2018-03-29T07:22:05.017Z,1003.03
2018-03-29T07:23:14.095Z,1003.02
2018-03-29T07:24:23.198Z,1003.02
2018-03-29T07:25:32.028Z,1003.12
2018-03-29T07:26:41.141Z,1003.04
2018-03-29T07:27:49.969Z,1003.03
2018-03-29T07:28:58.848Z,1003.03
2018-03-29T07:30:07.681Z,1003.14
2018-03-29T07:31:16.511Z,1003.09
2018-03-29T07:32:25.340Z,1003.11
2018-03-29T07:33:34.171Z,1003.14
2018-03-29T07:34:43.151Z,1003.11
2018-03-29T07:35:51.980Z,1003.06
2018-03-29T07:37:00.810Z,1003.14
2018-03-29T07:38:09.640Z,1003.09
2018-03-29T07:39:18.470Z,1003.16
2018-03-29T07:40:27.352Z,1003.13
2018-03-29T07:41:36.186Z,1003.14
2018-03-29T07:42:45.016Z,1003.16
2018-03-29T07:43:53.843Z,1003.19
2018-03-29T07:45:02.962Z,1003.17
2018-03-29T07:46:12.168Z,1003.12
2018-03-29T07:47:20.999Z,1003.03
2018-03-29T07:48:29.832Z,1003.13
2018-03-29T07:49:38.662Z,1003.09
2018-03-29T07:50:47.490Z,1003.11
2018-03-29T07:51:56.997Z,1003.15
2018-03-29T07:53:05.829Z,1003.13
2018-03-29T07:54:14.661Z,1003.11
2018-03-29T07:55:23.497Z,1003.06
2018-03-29T07:56:32.326Z,1003.05
2018-03-29T07:57:41.459Z,1003.05
2018-03-29T07:58:50.290Z,1003.1
2018-03-29T07:59:59.122Z,1003.17
2018-03-29T08:01:08.247Z,1003.21
2018-03-29T08:02:17.075Z,1003.23
2018-03-29T08:03:26.206Z,1003.23
2018-03-29T08:04:35.036Z,1003.24
2018-03-29T08:05:43.864Z,1003.3
2018-03-29T08:06:52.699Z,1003.25
2018-03-29T08:08:01.804Z,1003.31
2018-03-29T08:09:10.684Z,1003.29
2018-03-29T08:10:19.518Z,1003.34
2018-03-29T08:11:28.349Z,1003.29
2018-03-29T08:12:37.465Z,1003.27
2018-03-29T08:13:46.592Z,1003.22
2018-03-29T08:14:55.403Z,1003.32
2018-03-29T08:16:04.232Z,1003.26
2018-03-29T08:17:13.066Z,1003.34
2018-03-29T08:18:21.897Z,1003.28
2018-03-29T08:19:30.727Z,1003.35
2018-03-29T08:20:39.606Z,1003.36
2018-03-29T08:21:48.755Z,1003.28
2018-03-29T08:22:57.543Z,1003.34
2018-03-29T08:24:06.648Z,1003.33
2018-03-29T08:25:15.765Z,1003.28
2018-03-29T08:26:24.596Z,1003.34
2018-03-29T08:27:33.427Z,1003.34
2018-03-29T08:28:42.256Z,1003.31
2018-03-29T08:29:51.087Z,1003.46
2018-03-29T08:30:59.917Z,1003.35
2018-03-29T08:32:09.047Z,1003.43
2018-03-29T08:33:17.878Z,1003.34
2018-03-29T08:34:26.707Z,1003.4
2018-03-29T08:35:35.548Z,1003.38
2018-03-29T08:36:44.649Z,1003.38
2018-03-29T08:37:53.530Z,1003.5
2018-03-29T08:39:02.365Z,1003.45
2018-03-29T08:40:11.193Z,1003.45
2018-03-29T08:41:20.024Z,1003.49
2018-03-29T08:42:28.850Z,1003.52
2018-03-29T08:43:37.830Z,1003.56
2018-03-29T08:44:46.660Z,1003.52
2018-03-29T08:45:55.489Z,1003.62
2018-03-29T08:47:04.321Z,1003.5
2018-03-29T08:48:13.151Z,1003.55
2018-03-29T08:49:22.033Z,1003.57
2018-03-29T08:50:31.141Z,1003.57
2018-03-29T08:51:40.267Z,1003.55
2018-03-29T08:52:49.645Z,1003.62
2018-03-29T08:53:58.476Z,1003.59
2018-03-29T08:55:07.306Z,1003.61
2018-03-29T08:56:16.138Z,1003.55
2018-03-29T08:57:24.979Z,1003.52
2018-03-29T08:58:33.811Z,1003.57
2018-03-29T08:59:42.643Z,1003.61
2018-03-29T09:00:51.854Z,1003.71
2018-03-29T09:02:00.685Z,1003.6
2018-03-29T09:03:09.517Z,1003.57
2018-03-29T09:04:18.351Z,1003.53
2018-03-29T09:05:27.183Z,1003.68
2018-03-29T09:06:36.116Z,1003.64
2018-03-29T09:07:44.950Z,1003.55
2018-03-29T09:08:53.808Z,1003.66
2018-03-29T09:10:02.617Z,1003.69
2018-03-29T09:11:11.449Z,1003.58
2018-03-29T09:12:20.330Z,1003.64
2018-03-29T09:13:29.436Z,1003.71
2018-03-29T09:14:38.266Z,1003.73
2018-03-29T09:15:47.671Z,1003.76
2018-03-29T09:16:56.498Z,1003.88
2018-03-29T09:18:05.479Z,1003.8
2018-03-29T09:19:14.359Z,1003.76
2018-03-29T09:20:23.190Z,1003.77
2018-03-29T09:21:32.022Z,1003.94
2018-03-29T09:22:40.851Z,1003.88
2018-03-29T09:23:49.831Z,1003.92
2018-03-29T09:24:58.662Z,1003.98
2018-03-29T09:26:07.494Z,1003.98
2018-03-29T09:27:16.378Z,1003.96
2018-03-29T09:28:25.154Z,1003.94
2018-03-29T09:29:34.236Z,1003.95
2018-03-29T09:30:43.345Z,1003.95
2018-03-29T09:31:52.733Z,1004
2018-03-29T09:33:01.563Z,1004.03
2018-03-29T09:34:10.394Z,1004
2018-03-29T09:35:19.373Z,1004.04
2018-03-29T09:36:28.203Z,1004.04
2018-03-29T09:37:37.032Z,1004.08
2018-03-29T09:38:45.861Z,1004.11
2018-03-29T09:39:54.969Z,1004.16
2018-03-29T09:41:03.952Z,1004.13
2018-03-29T09:42:12.782Z,1004.05
2018-03-29T09:43:21.610Z,1004.09
2018-03-29T09:44:30.440Z,1004.04
2018-03-29T09:45:39.823Z,1004.16
2018-03-29T09:46:49.051Z,1004.13
2018-03-29T09:47:57.881Z,1004.18
2018-03-29T09:49:06.707Z,1004.16
2018-03-29T09:50:15.818Z,1004.22
2018-03-29T09:51:24.647Z,1004.18
2018-03-29T09:52:33.628Z,1004.17
2018-03-29T09:53:42.458Z,1004.17
2018-03-29T09:54:51.288Z,1004.18
2018-03-29T09:56:00.120Z,1004.19
2018-03-29T09:57:08.948Z,1004.17
2018-03-29T09:58:17.880Z,1004.24
2018-03-29T09:59:26.710Z,1004.24
2018-03-29T10:00:35.544Z,1004.2
2018-03-29T10:01:44.656Z,1004.24
2018-03-29T10:02:53.487Z,1004.19
2018-03-29T10:04:02.318Z,1004.18
2018-03-29T10:05:11.148Z,1004.26
2018-03-29T10:06:19.978Z,1004.27
2018-03-29T10:07:28.810Z,1004.17
2018-03-29T10:08:37.645Z,1004.25
2018-03-29T10:09:46.576Z,1004.26
2018-03-29T10:10:55.418Z,1004.32
2018-03-29T10:12:04.522Z,1004.28
2018-03-29T10:13:13.356Z,1004.27
2018-03-29T10:14:22.186Z,1004.25
2018-03-29T10:15:31.168Z,1004.3
2018-03-29T10:16:40.002Z,1004.31
2018-03-29T10:17:48.835Z,1004.34
2018-03-29T10:18:57.671Z,1004.32
2018-03-29T10:20:06.503Z,1004.29
2018-03-29T10:21:15.336Z,1004.32
2018-03-29T10:22:24.447Z,1004.3
2018-03-29T10:23:33.280Z,1004.32
2018-03-29T10:24:42.114Z,1004.28
2018-03-29T10:25:51.272Z,1004.31
2018-03-29T10:27:00.310Z,1004.33
2018-03-29T10:28:09.138Z,1004.32
2018-03-29T10:29:18.532Z,1004.28
2018-03-29T10:30:27.367Z,1004.36
2018-03-29T10:31:36.206Z,1004.25
2018-03-29T10:32:45.369Z,1004.32
2018-03-29T10:33:54.483Z,1004.33
2018-03-29T10:35:03.315Z,1004.32
2018-03-29T10:36:12.426Z,1004.33
2018-03-29T10:37:21.257Z,1004.39
2018-03-29T10:38:30.189Z,1004.47
2018-03-29T10:39:39.022Z,1004.56
2018-03-29T10:40:47.855Z,1004.53
2018-03-29T10:41:56.694Z,1004.42
2018-03-29T10:43:05.526Z,1004.49
2018-03-29T10:44:14.459Z,1004.51
2018-03-29T10:45:23.290Z,1004.52
2018-03-29T10:46:32.162Z,1004.57
2018-03-29T10:47:40.954Z,1004.63
2018-03-29T10:48:49.786Z,1004.56
2018-03-29T10:49:58.668Z,1004.54
2018-03-29T10:51:07.501Z,1004.57
2018-03-29T10:52:16.330Z,1004.57
2018-03-29T10:53:25.161Z,1004.61
2018-03-29T10:54:33.990Z,1004.62
2018-03-29T10:55:42.821Z,1004.62
2018-03-29T10:56:51.650Z,1004.64
2018-03-29T10:58:00.519Z,1004.65
2018-03-29T10:59:09.678Z,1004.57
2018-03-29T11:00:18.509Z,1004.66
2018-03-29T11:01:27.438Z,1004.64
2018-03-29T11:02:36.270Z,1004.56
2018-03-29T11:03:45.382Z,1004.51
2018-03-29T11:04:54.212Z,1004.56
2018-03-29T11:06:03.044Z,1004.58
2018-03-29T11:07:11.873Z,1004.55
2018-03-29T11:08:20.702Z,1004.54
2018-03-29T11:09:29.536Z,1004.59
2018-03-29T11:10:38.368Z,1004.57
2018-03-29T11:11:47.198Z,1004.56
2018-03-29T11:12:56.028Z,1004.59
2018-03-29T11:14:04.858Z,1004.51
2018-03-29T11:15:13.691Z,1004.59
2018-03-29T11:16:22.525Z,1004.56
2018-03-29T11:17:31.357Z,1004.6
2018-03-29T11:18:40.389Z,1004.58
2018-03-29T11:19:49.224Z,1004.55
2018-03-29T11:20:58.058Z,1004.52
2018-03-29T11:22:06.885Z,1004.49
2018-03-29T11:23:15.721Z,1004.52
2018-03-29T11:24:25.011Z,1004.52
2018-03-29T11:25:33.824Z,1004.61
2018-03-29T11:26:42.930Z,1004.55
2018-03-29T11:27:51.761Z,1004.6
2018-03-29T11:29:00.871Z,1004.6
2018-03-29T11:30:09.697Z,1004.65
2018-03-29T11:31:18.527Z,1004.63
2018-03-29T11:32:27.360Z,1004.64
2018-03-29T11:33:36.193Z,1004.68
2018-03-29T11:34:45.033Z,1004.71
2018-03-29T11:35:54.120Z,1004.68
2018-03-29T11:37:02.951Z,1004.64
2018-03-29T11:38:11.788Z,1004.58
2018-03-29T11:39:20.616Z,1004.66
2018-03-29T11:40:29.450Z,1004.61
2018-03-29T11:41:38.382Z,1004.63
2018-03-29T11:42:47.563Z,1004.66
2018-03-29T11:43:56.396Z,1004.71
2018-03-29T11:45:05.228Z,1004.71
2018-03-29T11:46:14.061Z,1004.7
2018-03-29T11:47:23.050Z,1004.71
2018-03-29T11:48:31.887Z,1004.66
2018-03-29T11:49:40.714Z,1004.68
2018-03-29T11:50:49.825Z,1004.74
2018-03-29T11:51:58.658Z,1004.82
2018-03-29T11:53:07.887Z,1004.88
2018-03-29T11:54:16.722Z,1004.86
2018-03-29T11:55:25.555Z,1004.81
2018-03-29T11:56:34.380Z,1004.89
2018-03-29T11:57:43.214Z,1004.89
2018-03-29T11:58:52.145Z,1004.86
2018-03-29T12:00:00.985Z,1004.91
2018-03-29T12:01:09.809Z,1004.9
2018-03-29T12:02:18.642Z,1004.9
2018-03-29T12:03:27.476Z,1004.91
2018-03-29T12:04:36.556Z,1004.91
2018-03-29T12:05:45.387Z,1004.87
2018-03-29T12:06:54.221Z,1004.87
2018-03-29T12:08:03.053Z,1004.82
2018-03-29T12:09:11.893Z,1004.81
2018-03-29T12:10:21.153Z,1004.81
2018-03-29T12:11:29.985Z,1004.75
2018-03-29T12:12:38.816Z,1004.77
2018-03-29T12:13:47.648Z,1004.8
2018-03-29T12:14:56.757Z,1004.85
2018-03-29T12:16:05.969Z,1004.79
2018-03-29T12:17:15.082Z,1004.84
2018-03-29T12:18:23.909Z,1004.86
2018-03-29T12:19:33.318Z,1004.84
2018-03-29T12:20:42.429Z,1004.84
2018-03-29T12:21:51.411Z,1004.83
2018-03-29T12:23:00.243Z,1004.84
2018-03-29T12:24:09.076Z,1004.88
2018-03-29T12:25:17.908Z,1004.85
2018-03-29T12:26:27.019Z,1004.84
2018-03-29T12:27:35.853Z,1004.82
2018-03-29T12:28:44.688Z,1004.83
2018-03-29T12:29:53.525Z,1004.8
2018-03-29T12:31:02.356Z,1004.79
2018-03-29T12:32:11.192Z,1004.81
2018-03-29T12:33:20.427Z,1004.78
2018-03-29T12:34:29.262Z,1004.78
2018-03-29T12:35:38.371Z,1004.81
2018-03-29T12:36:47.207Z,1004.76
2018-03-29T12:37:56.044Z,1004.75
2018-03-29T12:39:04.989Z,1004.77
2018-03-29T12:40:13.818Z,1004.83
2018-03-29T12:41:22.652Z,1004.8
2018-03-29T12:42:31.486Z,1004.8
2018-03-29T12:43:40.322Z,1004.85
2018-03-29T12:44:49.206Z,1004.9
2018-03-29T12:45:58.338Z,1004.94
2018-03-29T12:47:07.169Z,1004.95
2018-03-29T12:48:16.004Z,1004.96
2018-03-29T12:49:25.188Z,1004.94
2018-03-29T12:50:34.167Z,1004.98
2018-03-29T12:51:43.001Z,1005.1
2018-03-29T12:52:52.111Z,1005.02
2018-03-29T12:54:00.944Z,1005.01
2018-03-29T12:55:09.778Z,1005.13
2018-03-29T12:56:18.862Z,1005.13
2018-03-29T12:57:27.982Z,1005.1
2018-03-29T12:58:37.094Z,1005.13
2018-03-29T12:59:45.928Z,1005.12
2018-03-29T13:00:54.763Z,1005.14
2018-03-29T13:02:03.748Z,1005.13
2018-03-29T13:03:12.575Z,1005.15
2018-03-29T13:04:21.409Z,1005.1
2018-03-29T13:05:30.244Z,1005.08
2018-03-29T13:06:39.084Z,1005.05
2018-03-29T13:07:48.215Z,1005
2018-03-29T13:08:57.045Z,1005.01
2018-03-29T13:10:05.879Z,1005.07
2018-03-29T13:11:14.711Z,1005
2018-03-29T13:12:23.549Z,1005.08
2018-03-29T13:13:32.715Z,1005.02
2018-03-29T13:14:41.828Z,1005.03
2018-03-29T13:15:50.661Z,1005.07
2018-03-29T13:16:59.495Z,1005.11
2018-03-29T13:18:08.333Z,1005.1
2018-03-29T13:19:17.221Z,1005.16
2018-03-29T13:20:26.058Z,1005.16
2018-03-29T13:21:35.174Z,1005.08
2018-03-29T13:22:44.010Z,1005.01
2018-03-29T13:23:52.856Z,1005.01
2018-03-29T13:25:01.731Z,1004.98
2018-03-29T13:26:10.566Z,1004.92
2018-03-29T13:27:19.682Z,1004.96
2018-03-29T13:28:28.552Z,1005
2018-03-29T13:29:37.354Z,1005.04
2018-03-29T13:30:46.250Z,1005.03
2018-03-29T13:31:55.077Z,1005.06
2018-03-29T13:33:03.916Z,1005.01
2018-03-29T13:34:12.752Z,1005.01
2018-03-29T13:35:21.591Z,1005.1
2018-03-29T13:36:30.679Z,1005.08
2018-03-29T13:37:39.511Z,1005.12
2018-03-29T13:38:48.354Z,1005.31
2018-03-29T13:39:57.191Z,1005.3
2018-03-29T13:41:06.321Z,1005.22
2018-03-29T13:42:15.211Z,1005.16
2018-03-29T13:43:24.113Z,1005.38
2018-03-29T13:44:32.886Z,1005.27
2018-03-29T13:45:41.729Z,1005.38
2018-03-29T13:46:50.843Z,1005.34
2018-03-29T13:47:59.686Z,1005.37
2018-03-29T13:49:08.801Z,1005.36
2018-03-29T13:50:17.640Z,1005.13
2018-03-29T13:51:26.479Z,1005.11
2018-03-29T13:52:35.320Z,1005.07
2018-03-29T13:53:44.459Z,1005.09
2018-03-29T13:54:53.299Z,1005.08
2018-03-29T13:56:02.141Z,1005.03
2018-03-29T13:57:11.258Z,1005.04
2018-03-29T13:58:20.096Z,1005.1
2018-03-29T13:59:28.936Z,1005.09
2018-03-29T14:00:37.775Z,1005.08
2018-03-29T14:01:46.617Z,1005.1
2018-03-29T14:02:55.734Z,1005.01